AFL240 UUEE-USII
Flight info
| Callsign | AFL240 |
|---|---|
| Flight time | 1h 27m |
| Altitude | 35000 |
| Route | KOGOM L94 EKPIR M864 IDMOR P164 KERUN M864 MUROT |
| Aircraft | A320/M-V/N |
Departure
| Time | 2026-04-23 10:48 |
|---|---|
| Airport | Sheremetyevo International Airport (UUEE) |
Arrival
| Time | 2026-04-23 12:15 |
|---|---|
| Airport | Izhevsk Airport (USII) |
| Time | Latitude | Longitude | Altitude | Speed | Heading |
|---|---|---|---|---|---|
| 2026-04-23 10:29 | 55.97880 | 37.41914 | 639 ft | 0 kts | 255° |
| 2026-04-23 10:38 | 55.97883 | 37.41933 | 639 ft | 4 kts | 263° |
| 2026-04-23 10:38 | 55.97882 | 37.41980 | 639 ft | 4 kts | 284° |
| 2026-04-23 10:38 | 55.97875 | 37.42026 | 639 ft | 4 kts | 280° |
| 2026-04-23 10:38 | 55.97874 | 37.42056 | 639 ft | 0 kts | 255° |
| 2026-04-23 10:39 | 55.97930 | 37.42023 | 639 ft | 0 kts | 166° |
| 2026-04-23 10:42 | 55.97895 | 37.42041 | 640 ft | 8 kts | 164° |
| 2026-04-23 10:42 | 55.97849 | 37.42062 | 639 ft | 6 kts | 165° |
| 2026-04-23 10:42 | 55.97814 | 37.42079 | 639 ft | 6 kts | 164° |
| 2026-04-23 10:43 | 55.97771 | 37.42100 | 642 ft | 6 kts | 165° |
| 2026-04-23 10:43 | 55.97735 | 37.42116 | 639 ft | 8 kts | 166° |
| 2026-04-23 10:43 | 55.97689 | 37.42201 | 645 ft | 10 kts | 89° |
| 2026-04-23 10:43 | 55.97705 | 37.42317 | 648 ft | 11 kts | 76° |
| 2026-04-23 10:44 | 55.97728 | 37.42473 | 640 ft | 15 kts | 75° |
| 2026-04-23 10:44 | 55.97755 | 37.42652 | 639 ft | 14 kts | 75° |
| 2026-04-23 10:44 | 55.97777 | 37.42801 | 639 ft | 11 kts | 75° |
| 2026-04-23 10:44 | 55.97800 | 37.42951 | 639 ft | 17 kts | 75° |
| 2026-04-23 10:45 | 55.97830 | 37.43155 | 643 ft | 16 kts | 75° |
| 2026-04-23 10:45 | 55.97859 | 37.43343 | 639 ft | 15 kts | 75° |
| 2026-04-23 10:45 | 55.97883 | 37.43508 | 639 ft | 13 kts | 75° |
| 2026-04-23 10:45 | 55.97909 | 37.43681 | 645 ft | 14 kts | 75° |
| 2026-04-23 10:46 | 55.97932 | 37.43837 | 639 ft | 12 kts | 75° |
| 2026-04-23 10:46 | 55.97948 | 37.43946 | 639 ft | 7 kts | 81° |
| 2026-04-23 10:46 | 55.97935 | 37.44016 | 643 ft | 7 kts | 129° |
| 2026-04-23 10:46 | 55.97888 | 37.44052 | 639 ft | 7 kts | 164° |
| 2026-04-23 10:47 | 55.97828 | 37.44076 | 643 ft | 9 kts | 177° |
| 2026-04-23 10:47 | 55.97783 | 37.44022 | 641 ft | 7 kts | 240° |
| 2026-04-23 10:47 | 55.97770 | 37.43944 | 641 ft | 11 kts | 254° |
| 2026-04-23 10:47 | 55.97694 | 37.43443 | 641 ft | 83 kts | 255° |
| 2026-04-23 10:48 | 55.97483 | 37.42011 | 642 ft | 152 kts | 257° |
| 2026-04-23 10:48 | 55.97212 | 37.40018 | 1214 ft | 167 kts | 259° |
| 2026-04-23 10:48 | 55.96880 | 37.38014 | 2101 ft | 172 kts | 249° |
| 2026-04-23 10:48 | 55.96269 | 37.36163 | 2716 ft | 183 kts | 239° |
| 2026-04-23 10:49 | 55.95511 | 37.34180 | 3010 ft | 203 kts | 237° |
| 2026-04-23 10:49 | 55.94662 | 37.32037 | 3293 ft | 221 kts | 235° |
| 2026-04-23 10:49 | 55.93734 | 37.29720 | 3719 ft | 238 kts | 236° |
| 2026-04-23 10:49 | 55.92770 | 37.27308 | 4523 ft | 237 kts | 236° |
| 2026-04-23 10:50 | 55.91807 | 37.24886 | 5228 ft | 242 kts | 238° |
| 2026-04-23 10:50 | 55.90841 | 37.22415 | 5966 ft | 244 kts | 231° |
| 2026-04-23 10:50 | 55.89522 | 37.20584 | 6625 ft | 249 kts | 200° |
| 2026-04-23 10:50 | 55.87787 | 37.20247 | 6953 ft | 263 kts | 166° |
| 2026-04-23 10:51 | 55.86154 | 37.21705 | 6988 ft | 267 kts | 141° |
| 2026-04-23 10:51 | 55.84767 | 37.23909 | 6985 ft | 267 kts | 125° |
| 2026-04-23 10:51 | 55.84052 | 37.26904 | 6991 ft | 264 kts | 96° |
| 2026-04-23 10:51 | 55.84243 | 37.30141 | 7090 ft | 274 kts | 66° |
| 2026-04-23 10:52 | 55.85294 | 37.32966 | 7820 ft | 276 kts | 50° |
| 2026-04-23 10:52 | 55.86511 | 37.35630 | 8588 ft | 280 kts | 50° |
| 2026-04-23 10:52 | 55.87754 | 37.38338 | 8906 ft | 283 kts | 50° |
| 2026-04-23 10:52 | 55.88985 | 37.41021 | 8981 ft | 283 kts | 50° |
| 2026-04-23 10:53 | 55.90232 | 37.43741 | 8991 ft | 284 kts | 50° |
| 2026-04-23 10:53 | 55.91482 | 37.46460 | 8993 ft | 284 kts | 50° |
| 2026-04-23 10:53 | 55.92684 | 37.49244 | 8992 ft | 284 kts | 58° |
| 2026-04-23 10:53 | 55.93439 | 37.52484 | 8990 ft | 285 kts | 76° |
| 2026-04-23 10:54 | 55.93592 | 37.56027 | 9361 ft | 290 kts | 95° |
| 2026-04-23 10:54 | 55.93252 | 37.59577 | 10188 ft | 292 kts | 101° |
| 2026-04-23 10:54 | 55.92861 | 37.63147 | 10947 ft | 294 kts | 101° |
| 2026-04-23 10:54 | 55.92470 | 37.66749 | 11606 ft | 298 kts | 101° |
| 2026-04-23 10:55 | 55.92077 | 37.70369 | 12218 ft | 304 kts | 101° |
| 2026-04-23 10:55 | 55.91563 | 37.74053 | 12837 ft | 309 kts | 111° |
| 2026-04-23 10:55 | 55.90631 | 37.77505 | 13500 ft | 310 kts | 121° |
| 2026-04-23 10:55 | 55.89576 | 37.80855 | 14132 ft | 311 kts | 122° |
| 2026-04-23 10:56 | 55.88520 | 37.84220 | 14321 ft | 311 kts | 122° |
| 2026-04-23 10:56 | 55.87471 | 37.87577 | 14367 ft | 310 kts | 122° |
| 2026-04-23 10:56 | 55.86424 | 37.90935 | 14363 ft | 310 kts | 122° |
| 2026-04-23 10:56 | 55.85399 | 37.94237 | 14353 ft | 309 kts | 122° |
| 2026-04-23 10:57 | 55.84355 | 37.97577 | 14349 ft | 309 kts | 122° |
| 2026-04-23 10:57 | 55.83303 | 38.00914 | 14352 ft | 309 kts | 122° |
| 2026-04-23 10:57 | 55.82249 | 38.04253 | 14348 ft | 310 kts | 122° |
| 2026-04-23 10:57 | 55.81196 | 38.07597 | 14351 ft | 310 kts | 122° |
| 2026-04-23 10:58 | 55.80249 | 38.11038 | 14344 ft | 312 kts | 112° |
| 2026-04-23 10:58 | 55.79744 | 38.14803 | 14352 ft | 320 kts | 98° |
| 2026-04-23 10:58 | 55.79718 | 38.18886 | 14586 ft | 339 kts | 89° |
| 2026-04-23 10:58 | 55.79819 | 38.23052 | 15101 ft | 345 kts | 90° |
| 2026-04-23 10:59 | 55.79916 | 38.27332 | 15308 ft | 348 kts | 90° |
| 2026-04-23 10:59 | 55.80007 | 38.31624 | 15342 ft | 347 kts | 90° |
| 2026-04-23 10:59 | 55.80096 | 38.35913 | 15345 ft | 348 kts | 91° |
| 2026-04-23 10:59 | 55.80252 | 38.40202 | 15344 ft | 349 kts | 84° |
| 2026-04-23 11:00 | 55.80831 | 38.44415 | 15565 ft | 354 kts | 73° |
| 2026-04-23 11:00 | 55.81602 | 38.48591 | 16186 ft | 357 kts | 74° |
| 2026-04-23 11:00 | 55.82364 | 38.52813 | 16760 ft | 361 kts | 75° |
| 2026-04-23 11:00 | 55.83125 | 38.57087 | 17301 ft | 364 kts | 75° |
| 2026-04-23 11:01 | 55.83878 | 38.61348 | 17837 ft | 367 kts | 75° |
| 2026-04-23 11:01 | 55.84645 | 38.65705 | 18253 ft | 372 kts | 75° |
| 2026-04-23 11:01 | 55.85423 | 38.70095 | 18331 ft | 372 kts | 74° |
| 2026-04-23 11:01 | 55.86438 | 38.74372 | 18370 ft | 383 kts | 66° |
| 2026-04-23 11:02 | 55.87614 | 38.78733 | 18503 ft | 398 kts | 66° |
| 2026-04-23 11:02 | 55.88824 | 38.83259 | 18684 ft | 410 kts | 66° |
| 2026-04-23 11:02 | 55.90052 | 38.87878 | 19063 ft | 415 kts | 67° |
| 2026-04-23 11:02 | 55.91293 | 38.92555 | 19519 ft | 419 kts | 66° |
| 2026-04-23 11:03 | 55.92542 | 38.97267 | 19950 ft | 422 kts | 67° |
| 2026-04-23 11:03 | 55.93786 | 39.01962 | 20356 ft | 426 kts | 67° |
| 2026-04-23 11:03 | 55.95052 | 39.06763 | 20763 ft | 429 kts | 68° |
| 2026-04-23 11:03 | 55.96085 | 39.11761 | 21149 ft | 429 kts | 78° |
| 2026-04-23 11:04 | 55.96658 | 39.16979 | 21551 ft | 428 kts | 88° |
| 2026-04-23 11:04 | 55.96939 | 39.22280 | 21936 ft | 430 kts | 88° |
| 2026-04-23 11:04 | 55.97220 | 39.27615 | 22319 ft | 434 kts | 88° |
| 2026-04-23 11:04 | 55.97504 | 39.32995 | 22684 ft | 437 kts | 89° |
| 2026-04-23 11:05 | 55.97788 | 39.38415 | 23049 ft | 440 kts | 89° |
| 2026-04-23 11:05 | 55.98073 | 39.43873 | 23407 ft | 442 kts | 88° |
| 2026-04-23 11:05 | 55.98355 | 39.49284 | 23743 ft | 445 kts | 89° |
| 2026-04-23 11:05 | 55.98639 | 39.54801 | 24088 ft | 448 kts | 89° |
| 2026-04-23 11:06 | 55.99529 | 39.65886 | 24739 ft | 458 kts | 77° |
| 2026-04-23 11:06 | 56.00610 | 39.71266 | 25065 ft | 463 kts | 68° |
| 2026-04-23 11:06 | 56.01904 | 39.76551 | 25369 ft | 464 kts | 73° |
| 2026-04-23 11:07 | 56.02721 | 39.82104 | 25693 ft | 461 kts | 84° |
| 2026-04-23 11:07 | 56.03019 | 39.87792 | 26014 ft | 458 kts | 93° |
| 2026-04-23 11:07 | 56.03058 | 39.93491 | 26340 ft | 460 kts | 93° |
| 2026-04-23 11:07 | 56.03117 | 39.99147 | 26630 ft | 462 kts | 93° |
| 2026-04-23 11:08 | 56.03194 | 40.04907 | 26914 ft | 464 kts | 93° |
| 2026-04-23 11:08 | 56.03279 | 40.10684 | 27189 ft | 466 kts | 93° |
| 2026-04-23 11:08 | 56.03367 | 40.16481 | 27464 ft | 468 kts | 93° |
| 2026-04-23 11:08 | 56.03452 | 40.22311 | 27727 ft | 470 kts | 93° |
| 2026-04-23 11:09 | 56.03531 | 40.28166 | 28008 ft | 472 kts | 93° |
| 2026-04-23 11:09 | 56.03600 | 40.34047 | 28261 ft | 474 kts | 93° |
| 2026-04-23 11:09 | 56.03663 | 40.39944 | 28534 ft | 475 kts | 93° |
| 2026-04-23 11:09 | 56.03719 | 40.45775 | 28791 ft | 476 kts | 93° |
| 2026-04-23 11:10 | 56.03775 | 40.51700 | 29108 ft | 476 kts | 93° |
| 2026-04-23 11:10 | 56.03830 | 40.57613 | 29456 ft | 475 kts | 93° |
| 2026-04-23 11:10 | 56.03878 | 40.63511 | 29796 ft | 474 kts | 94° |
| 2026-04-23 11:10 | 56.03927 | 40.69396 | 30127 ft | 472 kts | 94° |
| 2026-04-23 11:11 | 56.03976 | 40.75266 | 30440 ft | 472 kts | 93° |
| 2026-04-23 11:11 | 56.04023 | 40.81125 | 30745 ft | 472 kts | 93° |
| 2026-04-23 11:11 | 56.04052 | 40.85015 | 30919 ft | 472 kts | 93° |
| 2026-04-23 11:11 | 56.04105 | 40.92782 | 31306 ft | 472 kts | 92° |
| 2026-04-23 11:12 | 56.04141 | 40.98647 | 31594 ft | 471 kts | 92° |
| 2026-04-23 11:12 | 56.04175 | 41.04508 | 31873 ft | 472 kts | 92° |
| 2026-04-23 11:12 | 56.04201 | 41.10374 | 32150 ft | 472 kts | 92° |
| 2026-04-23 11:12 | 56.04221 | 41.16238 | 32433 ft | 471 kts | 92° |
| 2026-04-23 11:13 | 56.04238 | 41.22102 | 32689 ft | 472 kts | 92° |
| 2026-04-23 11:13 | 56.04251 | 41.25986 | 32860 ft | 472 kts | 92° |
| 2026-04-23 11:13 | 56.04273 | 41.31844 | 33123 ft | 471 kts | 92° |
| 2026-04-23 11:13 | 56.04290 | 41.37718 | 33370 ft | 472 kts | 92° |
| 2026-04-23 11:14 | 56.04307 | 41.45491 | 33695 ft | 472 kts | 92° |
| 2026-04-23 11:14 | 56.04318 | 41.51362 | 33923 ft | 472 kts | 92° |
| 2026-04-23 11:14 | 56.04321 | 41.57236 | 34142 ft | 473 kts | 92° |
| 2026-04-23 11:14 | 56.04321 | 41.61217 | 34298 ft | 474 kts | 92° |
| 2026-04-23 11:15 | 56.04321 | 41.67039 | 34369 ft | 475 kts | 92° |
| 2026-04-23 11:15 | 56.04317 | 41.78859 | 34373 ft | 476 kts | 92° |
| 2026-04-23 11:16 | 56.04307 | 41.90701 | 34372 ft | 476 kts | 92° |
| 2026-04-23 11:16 | 56.04280 | 42.02547 | 34374 ft | 476 kts | 92° |
| 2026-04-23 11:17 | 56.04240 | 42.14317 | 34371 ft | 477 kts | 92° |
| 2026-04-23 11:17 | 56.04191 | 42.26160 | 34372 ft | 476 kts | 92° |
| 2026-04-23 11:18 | 56.04126 | 42.38004 | 34372 ft | 476 kts | 92° |
| 2026-04-23 11:18 | 56.04052 | 42.49835 | 34373 ft | 475 kts | 92° |
| 2026-04-23 11:19 | 56.03953 | 42.61659 | 34374 ft | 476 kts | 93° |
| 2026-04-23 11:19 | 56.03802 | 42.73395 | 34378 ft | 475 kts | 93° |
| 2026-04-23 11:20 | 56.03636 | 42.85218 | 34384 ft | 476 kts | 93° |
| 2026-04-23 11:20 | 56.03468 | 42.97026 | 34387 ft | 475 kts | 94° |
| 2026-04-23 11:21 | 56.03285 | 43.08808 | 34386 ft | 473 kts | 94° |
| 2026-04-23 11:21 | 56.03091 | 43.20498 | 34385 ft | 474 kts | 94° |
| 2026-04-23 11:22 | 56.02898 | 43.32268 | 34392 ft | 474 kts | 91° |
| 2026-04-23 11:22 | 56.03567 | 43.44002 | 34383 ft | 474 kts | 84° |
| 2026-04-23 11:23 | 56.04376 | 43.55692 | 34372 ft | 473 kts | 85° |
| 2026-04-23 11:23 | 56.05146 | 43.67302 | 34371 ft | 473 kts | 85° |
| 2026-04-23 11:24 | 56.05918 | 43.79003 | 34373 ft | 474 kts | 85° |
| 2026-04-23 11:24 | 56.06687 | 43.90705 | 34376 ft | 474 kts | 85° |
| 2026-04-23 11:25 | 56.07435 | 44.02427 | 34377 ft | 474 kts | 85° |
| 2026-04-23 11:25 | 56.08161 | 44.14071 | 34380 ft | 474 kts | 85° |
| 2026-04-23 11:26 | 56.08888 | 44.25801 | 34379 ft | 474 kts | 85° |
| 2026-04-23 11:26 | 56.09611 | 44.37525 | 34381 ft | 474 kts | 85° |
| 2026-04-23 11:27 | 56.10329 | 44.49250 | 34379 ft | 473 kts | 86° |
| 2026-04-23 11:27 | 56.11017 | 44.60881 | 34386 ft | 473 kts | 84° |
| 2026-04-23 11:28 | 56.12785 | 44.72221 | 34379 ft | 475 kts | 69° |
| 2026-04-23 11:28 | 56.15274 | 44.83201 | 34371 ft | 475 kts | 69° |
| 2026-04-23 11:29 | 56.17721 | 44.94200 | 34365 ft | 475 kts | 69° |
| 2026-04-23 11:29 | 56.20157 | 45.05212 | 34368 ft | 474 kts | 69° |
| 2026-04-23 11:30 | 56.22571 | 45.16158 | 34367 ft | 474 kts | 69° |
| 2026-04-23 11:30 | 56.24997 | 45.27179 | 34372 ft | 474 kts | 69° |
| 2026-04-23 11:31 | 56.27411 | 45.38233 | 34378 ft | 475 kts | 69° |
| 2026-04-23 11:31 | 56.29818 | 45.49302 | 34391 ft | 475 kts | 69° |
| 2026-04-23 11:32 | 56.32207 | 45.60300 | 34400 ft | 475 kts | 69° |
| 2026-04-23 11:32 | 56.34610 | 45.71392 | 34413 ft | 475 kts | 69° |
| 2026-04-23 11:33 | 56.36998 | 45.82487 | 34411 ft | 475 kts | 69° |
| 2026-04-23 11:33 | 56.39363 | 45.93603 | 34421 ft | 474 kts | 70° |
| 2026-04-23 11:34 | 56.41697 | 46.04667 | 34426 ft | 475 kts | 70° |
| 2026-04-23 11:34 | 56.44050 | 46.15805 | 34439 ft | 474 kts | 70° |
| 2026-04-23 11:35 | 56.46399 | 46.26934 | 34430 ft | 474 kts | 69° |
| 2026-04-23 11:35 | 56.48728 | 46.38102 | 34442 ft | 475 kts | 70° |
| 2026-04-23 11:36 | 56.51032 | 46.49221 | 34455 ft | 475 kts | 70° |
| 2026-04-23 11:36 | 56.53342 | 46.60427 | 34471 ft | 476 kts | 70° |
| 2026-04-23 11:37 | 56.55651 | 46.71667 | 34477 ft | 476 kts | 70° |
| 2026-04-23 11:37 | 56.57947 | 46.82927 | 34481 ft | 477 kts | 70° |
| 2026-04-23 11:38 | 56.60234 | 46.94220 | 34493 ft | 476 kts | 70° |
| 2026-04-23 11:38 | 56.62493 | 47.05429 | 34490 ft | 476 kts | 70° |
| 2026-04-23 11:39 | 56.64754 | 47.16723 | 34488 ft | 475 kts | 70° |
| 2026-04-23 11:39 | 56.66902 | 47.28072 | 34484 ft | 474 kts | 77° |
| 2026-04-23 11:40 | 56.67743 | 47.39925 | 34482 ft | 473 kts | 86° |
| 2026-04-23 11:40 | 56.68254 | 47.51857 | 34487 ft | 474 kts | 86° |
| 2026-04-23 11:41 | 56.68767 | 47.63720 | 34489 ft | 473 kts | 86° |
| 2026-04-23 11:41 | 56.69269 | 47.75651 | 34487 ft | 473 kts | 86° |
| 2026-04-23 11:42 | 56.69751 | 47.87585 | 34490 ft | 473 kts | 86° |
| 2026-04-23 11:42 | 56.70231 | 47.99523 | 34493 ft | 473 kts | 87° |
| 2026-04-23 11:43 | 56.70694 | 48.11366 | 34488 ft | 472 kts | 87° |
| 2026-04-23 11:43 | 56.71138 | 48.23264 | 34490 ft | 471 kts | 87° |
| 2026-04-23 11:44 | 56.71573 | 48.35169 | 34487 ft | 472 kts | 87° |
| 2026-04-23 11:44 | 56.72005 | 48.47095 | 34492 ft | 473 kts | 87° |
| 2026-04-23 11:45 | 56.72421 | 48.58971 | 34501 ft | 473 kts | 88° |
| 2026-04-23 11:45 | 56.72836 | 48.70921 | 34511 ft | 473 kts | 87° |
| 2026-04-23 11:46 | 56.73244 | 48.82877 | 34519 ft | 473 kts | 88° |
| 2026-04-23 11:46 | 56.73638 | 48.94821 | 34522 ft | 472 kts | 88° |
| 2026-04-23 11:47 | 56.74009 | 49.06681 | 34518 ft | 472 kts | 88° |
| 2026-04-23 11:47 | 56.74370 | 49.18620 | 34516 ft | 471 kts | 88° |
| 2026-04-23 11:48 | 56.74716 | 49.30526 | 34504 ft | 470 kts | 88° |
| 2026-04-23 11:48 | 56.75056 | 49.42431 | 34516 ft | 470 kts | 88° |
| 2026-04-23 11:49 | 56.75395 | 49.54250 | 34513 ft | 472 kts | 88° |
| 2026-04-23 11:49 | 56.75715 | 49.66158 | 34521 ft | 470 kts | 88° |
| 2026-04-23 11:50 | 56.76017 | 49.78067 | 34526 ft | 471 kts | 88° |
| 2026-04-23 11:50 | 56.76390 | 49.89987 | 34530 ft | 471 kts | 86° |
| 2026-04-23 11:51 | 56.77005 | 50.01803 | 34531 ft | 471 kts | 85° |
| 2026-04-23 11:51 | 56.77666 | 50.13673 | 34536 ft | 470 kts | 85° |
| 2026-04-23 11:52 | 56.78250 | 50.25550 | 34537 ft | 470 kts | 86° |
| 2026-04-23 11:52 | 56.78785 | 50.37421 | 34540 ft | 469 kts | 86° |
| 2026-04-23 11:53 | 56.79308 | 50.49222 | 34536 ft | 471 kts | 86° |
| 2026-04-23 11:53 | 56.79839 | 50.61125 | 34536 ft | 471 kts | 86° |
| 2026-04-23 11:54 | 56.80362 | 50.73027 | 34541 ft | 470 kts | 86° |
| 2026-04-23 11:54 | 56.80618 | 50.78982 | 34412 ft | 471 kts | 86° |
| 2026-04-23 11:54 | 56.80871 | 50.84942 | 34163 ft | 471 kts | 87° |
| 2026-04-23 11:54 | 56.81116 | 50.90900 | 33915 ft | 471 kts | 87° |
| 2026-04-23 11:55 | 56.81358 | 50.96776 | 33669 ft | 470 kts | 86° |
| 2026-04-23 11:55 | 56.81605 | 51.02743 | 32820 ft | 474 kts | 86° |
| 2026-04-23 11:55 | 56.81851 | 51.08787 | 31754 ft | 480 kts | 86° |
| 2026-04-23 11:55 | 56.82094 | 51.14898 | 30749 ft | 484 kts | 86° |
| 2026-04-23 11:56 | 56.82332 | 51.20991 | 30055 ft | 480 kts | 86° |
| 2026-04-23 11:56 | 56.82564 | 51.27058 | 29152 ft | 480 kts | 86° |
| 2026-04-23 11:56 | 56.82792 | 51.33115 | 28394 ft | 477 kts | 86° |
| 2026-04-23 11:56 | 56.83014 | 51.39148 | 27518 ft | 476 kts | 86° |
| 2026-04-23 11:57 | 56.83236 | 51.45165 | 26644 ft | 474 kts | 86° |
| 2026-04-23 11:57 | 56.83455 | 51.51060 | 26027 ft | 468 kts | 86° |
| 2026-04-23 11:57 | 56.83622 | 51.56964 | 25241 ft | 464 kts | 89° |
| 2026-04-23 11:57 | 56.83649 | 51.62807 | 24587 ft | 456 kts | 91° |
| 2026-04-23 11:58 | 56.83571 | 51.68566 | 23927 ft | 451 kts | 93° |
| 2026-04-23 11:58 | 56.83442 | 51.74245 | 23282 ft | 445 kts | 94° |
| 2026-04-23 11:58 | 56.83304 | 51.79860 | 22653 ft | 440 kts | 94° |
| 2026-04-23 11:58 | 56.83179 | 51.85411 | 22044 ft | 434 kts | 94° |
| 2026-04-23 11:59 | 56.83079 | 51.90815 | 21482 ft | 430 kts | 93° |
| 2026-04-23 11:59 | 56.82994 | 51.96239 | 20941 ft | 425 kts | 93° |
| 2026-04-23 11:59 | 56.82923 | 52.01589 | 20415 ft | 419 kts | 93° |
| 2026-04-23 11:59 | 56.82856 | 52.06871 | 19917 ft | 413 kts | 93° |
| 2026-04-23 12:00 | 56.82788 | 52.12083 | 19425 ft | 408 kts | 94° |
| 2026-04-23 12:00 | 56.82723 | 52.17228 | 18955 ft | 403 kts | 92° |
| 2026-04-23 12:00 | 56.82895 | 52.22305 | 18485 ft | 398 kts | 87° |
| 2026-04-23 12:00 | 56.83131 | 52.27316 | 17997 ft | 394 kts | 87° |
| 2026-04-23 12:01 | 56.83362 | 52.32277 | 17513 ft | 390 kts | 88° |
| 2026-04-23 12:01 | 56.83586 | 52.37191 | 17020 ft | 386 kts | 88° |
| 2026-04-23 12:01 | 56.83800 | 52.41993 | 16528 ft | 384 kts | 88° |
| 2026-04-23 12:01 | 56.84011 | 52.46836 | 16026 ft | 382 kts | 88° |
| 2026-04-23 12:02 | 56.84220 | 52.51654 | 15516 ft | 380 kts | 88° |
| 2026-04-23 12:02 | 56.84431 | 52.56455 | 15004 ft | 379 kts | 88° |
| 2026-04-23 12:02 | 56.84640 | 52.61241 | 14484 ft | 377 kts | 88° |
| 2026-04-23 12:02 | 56.84846 | 52.66007 | 13962 ft | 376 kts | 88° |
| 2026-04-23 12:03 | 56.85049 | 52.70763 | 13433 ft | 374 kts | 88° |
| 2026-04-23 12:03 | 56.85251 | 52.75496 | 12906 ft | 373 kts | 88° |
| 2026-04-23 12:03 | 56.85446 | 52.80208 | 12376 ft | 371 kts | 88° |
| 2026-04-23 12:03 | 56.85634 | 52.84839 | 11835 ft | 370 kts | 88° |
| 2026-04-23 12:04 | 56.85823 | 52.89502 | 11298 ft | 367 kts | 88° |
| 2026-04-23 12:04 | 56.86016 | 52.94137 | 10747 ft | 366 kts | 88° |
| 2026-04-23 12:04 | 56.86208 | 52.98750 | 10256 ft | 361 kts | 88° |
| 2026-04-23 12:04 | 56.86390 | 53.03231 | 10110 ft | 346 kts | 88° |
| 2026-04-23 12:05 | 56.86565 | 53.07531 | 9974 ft | 333 kts | 88° |
| 2026-04-23 12:05 | 56.86731 | 53.11677 | 9848 ft | 321 kts | 88° |
| 2026-04-23 12:05 | 56.86889 | 53.15669 | 9719 ft | 310 kts | 88° |
| 2026-04-23 12:05 | 56.87042 | 53.19538 | 9580 ft | 300 kts | 88° |
| 2026-04-23 12:06 | 56.87186 | 53.23259 | 9577 ft | 297 kts | 88° |
| 2026-04-23 12:06 | 56.87330 | 53.27009 | 9094 ft | 295 kts | 88° |
| 2026-04-23 12:06 | 56.87607 | 53.34432 | 7977 ft | 288 kts | 88° |
| 2026-04-23 12:07 | 56.87736 | 53.38059 | 7519 ft | 285 kts | 88° |
| 2026-04-23 12:07 | 56.87868 | 53.41656 | 7082 ft | 282 kts | 88° |
| 2026-04-23 12:07 | 56.88001 | 53.45235 | 6637 ft | 283 kts | 88° |
| 2026-04-23 12:07 | 56.88285 | 53.48789 | 6263 ft | 282 kts | 76° |
| 2026-04-23 12:08 | 56.89047 | 53.52054 | 5862 ft | 285 kts | 59° |
| 2026-04-23 12:08 | 56.90217 | 53.54939 | 5534 ft | 282 kts | 52° |
| 2026-04-23 12:08 | 56.91439 | 53.57743 | 5143 ft | 280 kts | 52° |
| 2026-04-23 12:08 | 56.92645 | 53.60527 | 4795 ft | 276 kts | 53° |
| 2026-04-23 12:09 | 56.93809 | 53.63221 | 4668 ft | 264 kts | 52° |
| 2026-04-23 12:09 | 56.94932 | 53.65827 | 4416 ft | 258 kts | 51° |
| 2026-04-23 12:09 | 56.96067 | 53.68307 | 4254 ft | 247 kts | 41° |
| 2026-04-23 12:09 | 56.97558 | 53.69647 | 4055 ft | 237 kts | 6° |
| 2026-04-23 12:10 | 56.99132 | 53.69286 | 3963 ft | 226 kts | 333° |
| 2026-04-23 12:10 | 57.00340 | 53.67520 | 3937 ft | 221 kts | 302° |
| 2026-04-23 12:10 | 57.00859 | 53.65079 | 3931 ft | 202 kts | 273° |
| 2026-04-23 12:10 | 57.00698 | 53.62584 | 3897 ft | 197 kts | 246° |
| 2026-04-23 12:11 | 56.99936 | 53.60532 | 3770 ft | 195 kts | 219° |
| 2026-04-23 12:11 | 56.98771 | 53.59301 | 3556 ft | 193 kts | 205° |
| 2026-04-23 12:11 | 56.97549 | 53.58259 | 3307 ft | 195 kts | 205° |
| 2026-04-23 12:11 | 56.96321 | 53.57209 | 3076 ft | 194 kts | 205° |
| 2026-04-23 12:12 | 56.95116 | 53.56178 | 2809 ft | 189 kts | 205° |
| 2026-04-23 12:12 | 56.93948 | 53.55174 | 2548 ft | 180 kts | 204° |
| 2026-04-23 12:12 | 56.92864 | 53.54247 | 2323 ft | 169 kts | 205° |
| 2026-04-23 12:12 | 56.91839 | 53.53367 | 2101 ft | 158 kts | 205° |
| 2026-04-23 12:13 | 56.90882 | 53.52550 | 1901 ft | 147 kts | 205° |
| 2026-04-23 12:13 | 56.89973 | 53.51779 | 1702 ft | 142 kts | 205° |
| 2026-04-23 12:13 | 56.89077 | 53.51020 | 1500 ft | 141 kts | 204° |
| 2026-04-23 12:13 | 56.88194 | 53.50256 | 1296 ft | 141 kts | 205° |
| 2026-04-23 12:14 | 56.87319 | 53.49471 | 1134 ft | 140 kts | 206° |
| 2026-04-23 12:14 | 56.86438 | 53.48727 | 965 ft | 139 kts | 205° |
| 2026-04-23 12:14 | 56.85570 | 53.47996 | 767 ft | 139 kts | 204° |
| 2026-04-23 12:14 | 56.84694 | 53.47252 | 603 ft | 138 kts | 205° |
| 2026-04-23 12:15 | 56.83847 | 53.46536 | 530 ft | 121 kts | 205° |
| 2026-04-23 12:15 | 56.83238 | 53.46022 | 534 ft | 72 kts | 205° |
| 2026-04-23 12:15 | 56.82992 | 53.45811 | 534 ft | 18 kts | 204° |
| 2026-04-23 12:15 | 56.82913 | 53.45733 | 536 ft | 9 kts | 229° |
| 2026-04-23 12:16 | 56.82922 | 53.45631 | 536 ft | 11 kts | 293° |
| 2026-04-23 12:16 | 56.82959 | 53.45482 | 537 ft | 13 kts | 294° |
| 2026-04-23 12:16 | 56.82996 | 53.45350 | 537 ft | 9 kts | 309° |
| 2026-04-23 12:16 | 56.83044 | 53.45306 | 537 ft | 7 kts | 319° |
| 2026-04-23 12:17 | 56.83068 | 53.45235 | 537 ft | 6 kts | 304° |
| 2026-04-23 12:17 | 56.83100 | 53.45214 | 537 ft | 5 kts | 8° |
| 2026-04-23 12:17 | 56.83124 | 53.45232 | 536 ft | 0 kts | 24° |